Time;durP1;ratioP1;P1;durP2;ratioP2;P2;SDS_P1;SDS_P2;PMS_P1;PMS_P2;Temp;Humidity;BMP_temperature;BMP_pressure;BME280_temperature;BME280_humidity;BME280_pressure;Samples;Min_cycle;Max_cycle;Signal;HPM_P1;HPM_P2
2022/06/25 00:01:36;;;;;;;0.50;0.50;;;14.90;99.90;;;;;;4993886;28;20480;-82
2022/06/25 00:04:03;;;;;;;0.40;0.33;;;14.90;99.90;;;;;;4993629;28;20456;-82
2022/06/25 00:06:28;;;;;;;1.27;0.50;;;14.90;99.90;;;;;;4993394;28;20483;-82
2022/06/25 00:08:56;;;;;;;0.30;0.30;;;14.90;99.90;;;;;;4993435;28;20468;-82
2022/06/25 00:14:16;;;;;;;0.30;0.30;;;14.90;99.90;;;;;;4958980;28;20506;-82
2022/06/25 00:16:43;;;;;;;0.53;0.53;;;14.90;99.90;;;;;;4993462;28;20468;-82
2022/06/25 00:19:10;;;;;;;1.23;0.70;;;14.80;99.90;;;;;;4993269;28;20425;-81
2022/06/25 00:21:37;;;;;;;0.83;0.60;;;14.80;99.90;;;;;;4993449;28;20492;-81
2022/06/25 00:24:04;;;;;;;0.67;0.50;;;14.80;99.90;;;;;;4993210;28;20449;-81
2022/06/25 00:26:31;;;;;;;0.90;0.40;;;14.70;99.90;;;;;;4993180;28;20460;-82
2022/06/25 00:28:57;;;;;;;1.10;0.40;;;14.70;99.90;;;;;;4993402;28;20463;-81
2022/06/25 00:31:25;;;;;;;0.50;0.40;;;14.70;99.90;;;;;;4994252;28;20499;-81
2022/06/25 00:33:52;;;;;;;0.60;0.60;;;14.70;99.90;;;;;;4995194;28;20805;-82
2022/06/25 00:36:19;;;;;;;0.50;0.40;;;14.70;99.90;;;;;;4996707;28;20472;-81
2022/06/25 00:38:46;;;;;;;0.60;0.50;;;14.70;99.90;;;;;;4996862;28;20437;-81
2022/06/25 00:41:13;;;;;;;0.87;0.40;;;14.70;99.90;;;;;;4996434;28;21006;-81
2022/06/25 00:43:41;;;;;;;0.40;0.30;;;14.60;99.90;;;;;;4997017;28;20452;-81
2022/06/25 00:46:08;;;;;;;0.60;0.60;;;14.60;99.90;;;;;;4996641;28;20480;-81
2022/06/25 00:48:36;;;;;;;0.37;0.30;;;14.60;99.90;;;;;;4996966;28;20466;-81
2022/06/25 00:51:10;;;;;;;1.17;0.67;;;14.60;99.90;;;;;;4996423;28;20810;-81
2022/06/25 00:53:40;;;;;;;0.50;0.50;;;14.60;99.90;;;;;;4996542;28;20951;-81
2022/06/25 00:56:09;;;;;;;0.40;0.30;;;14.60;99.90;;;;;;4996467;28;20479;-81
2022/06/25 00:58:39;;;;;;;0.30;0.30;;;14.60;99.90;;;;;;4996660;28;20452;-82
2022/06/25 01:01:08;;;;;;;0.40;0.30;;;14.60;99.90;;;;;;4996369;28;20476;-82
2022/06/25 01:03:36;;;;;;;0.40;0.30;;;14.60;99.90;;;;;;4996351;28;20455;-81
2022/06/25 01:06:03;;;;;;;0.40;0.40;;;14.60;99.90;;;;;;4996224;28;20488;-81
2022/06/25 01:08:30;;;;;;;0.43;0.33;;;14.60;99.90;;;;;;4995883;28;20488;-82
2022/06/25 01:10:57;;;;;;;0.40;0.40;;;14.60;99.90;;;;;;4995897;28;20463;-82
2022/06/25 01:13:24;;;;;;;0.30;0.30;;;14.60;99.90;;;;;;4996459;28;20448;-81
2022/06/25 01:15:51;;;;;;;0.40;0.33;;;14.60;99.90;;;;;;4996207;28;20557;-81
2022/06/25 01:18:18;;;;;;;2.40;0.50;;;14.50;99.90;;;;;;4996297;28;20456;-81
2022/06/25 01:20:46;;;;;;;0.43;0.43;;;14.60;99.90;;;;;;4995980;28;20491;-82
2022/06/25 01:23:15;;;;;;;0.70;0.57;;;14.50;99.90;;;;;;4995982;28;20475;-81
2022/06/25 01:25:42;;;;;;;0.50;0.50;;;14.60;99.90;;;;;;4995611;28;20987;-82
2022/06/25 01:28:09;;;;;;;0.40;0.33;;;14.60;99.90;;;;;;4995963;28;20455;-82
2022/06/25 01:30:37;;;;;;;0.40;0.30;;;14.50;99.90;;;;;;4996110;28;20437;-82
2022/06/25 01:33:06;;;;;;;0.37;0.33;;;14.50;99.90;;;;;;4995880;28;20449;-82
2022/06/25 01:35:33;;;;;;;0.30;0.30;;;14.50;99.90;;;;;;4995787;28;20539;-81
2022/06/25 01:38:00;;;;;;;0.50;0.50;;;14.50;99.90;;;;;;4995769;28;20452;-82
2022/06/25 01:40:28;;;;;;;0.50;0.50;;;14.50;99.90;;;;;;4995402;28;20429;-81
2022/06/25 01:43:01;;;;;;;0.40;0.40;;;14.50;99.90;;;;;;4995915;28;20800;-82
2022/06/25 01:45:29;;;;;;;0.40;0.40;;;14.40;99.90;;;;;;4994685;28;20892;-82
2022/06/25 01:47:56;;;;;;;0.47;0.47;;;14.40;99.90;;;;;;4995568;28;20471;-82
2022/06/25 01:50:22;;;;;;;0.30;0.30;;;14.40;99.90;;;;;;4995524;28;20448;-81
2022/06/25 01:52:50;;;;;;;0.50;0.50;;;14.40;99.90;;;;;;4995175;28;20456;-82
2022/06/25 01:55:17;;;;;;;0.30;0.30;;;14.40;99.90;;;;;;4995247;28;20472;-81
2022/06/25 01:57:45;;;;;;;0.40;0.37;;;14.40;99.90;;;;;;4995397;28;20448;-82
2022/06/25 02:00:14;;;;;;;1.67;0.40;;;14.30;99.90;;;;;;4995105;28;20437;-81
2022/06/25 02:02:42;;;;;;;0.40;0.33;;;14.40;99.90;;;;;;4995143;28;21015;-82
2022/06/25 02:05:10;;;;;;;0.40;0.40;;;14.30;99.90;;;;;;4995173;28;20527;-81
2022/06/25 02:07:37;;;;;;;0.50;0.50;;;14.30;99.90;;;;;;4994894;28;20852;-82
2022/06/25 02:10:04;;;;;;;0.40;0.40;;;14.20;99.90;;;;;;4994826;28;20464;-81
2022/06/25 02:12:31;;;;;;;0.60;0.43;;;14.30;99.90;;;;;;4995231;28;20467;-82
2022/06/25 02:14:59;;;;;;;0.90;0.40;;;14.30;99.90;;;;;;4995014;28;20487;-82
2022/06/25 02:17:26;;;;;;;0.50;0.50;;;14.20;99.90;;;;;;4995027;28;20457;-82
2022/06/25 02:19:53;;;;;;;0.50;0.50;;;14.30;99.90;;;;;;4994993;28;20457;-82
2022/06/25 02:22:20;;;;;;;0.40;0.30;;;14.30;99.90;;;;;;4994851;28;20484;-82
2022/06/25 02:24:47;;;;;;;0.43;0.43;;;14.20;99.90;;;;;;4994797;28;20464;-82
2022/06/25 02:27:13;;;;;;;1.13;0.70;;;14.30;99.90;;;;;;4994814;28;20448;-82
2022/06/25 02:29:40;;;;;;;0.30;0.30;;;14.30;99.90;;;;;;4994669;28;20459;-82
2022/06/25 02:32:08;;;;;;;0.60;0.50;;;14.30;99.90;;;;;;4994515;28;20447;-82
2022/06/25 02:34:35;;;;;;;0.80;0.40;;;14.30;99.90;;;;;;4994688;28;20459;-82
2022/06/25 02:37:02;;;;;;;1.47;0.50;;;14.30;99.90;;;;;;4994682;28;20452;-82
2022/06/25 02:39:29;;;;;;;1.00;0.53;;;14.20;99.90;;;;;;4994672;28;20471;-82
2022/06/25 02:41:55;;;;;;;0.70;0.60;;;14.20;99.90;;;;;;4994205;28;20488;-82
2022/06/25 02:44:22;;;;;;;0.50;0.50;;;14.20;99.90;;;;;;4994556;28;20448;-82
2022/06/25 02:46:49;;;;;;;0.87;0.40;;;14.20;99.90;;;;;;4994432;28;20475;-82
2022/06/25 02:49:17;;;;;;;0.40;0.30;;;14.20;99.90;;;;;;4994517;28;20452;-82
2022/06/25 02:51:44;;;;;;;0.43;0.40;;;14.20;99.90;;;;;;4994430;28;20471;-82
2022/06/25 02:54:10;;;;;;;0.30;0.30;;;14.20;99.90;;;;;;4994669;28;20448;-82
2022/06/25 02:59:18;;;;;;;0.40;0.33;;;14.20;99.90;;;;;;4951661;28;20498;-82
2022/06/25 03:01:45;;;;;;;0.80;0.80;;;14.20;99.90;;;;;;4994353;28;20472;-82
2022/06/25 03:04:12;;;;;;;0.37;0.33;;;14.20;99.90;;;;;;4993940;28;20459;-82
2022/06/25 03:06:40;;;;;;;0.50;0.50;;;14.20;99.90;;;;;;4994182;28;20469;-82
2022/06/25 03:09:07;;;;;;;1.33;0.47;;;14.20;99.90;;;;;;4994015;28;20499;-82
2022/06/25 03:11:33;;;;;;;1.80;0.40;;;14.10;99.90;;;;;;4993914;28;20475;-81
2022/06/25 03:14:00;;;;;;;0.37;0.37;;;14.00;99.90;;;;;;4993871;28;20437;-82
2022/06/25 03:16:27;;;;;;;0.57;0.50;;;14.10;99.90;;;;;;4994043;28;20475;-82
2022/06/25 03:18:54;;;;;;;0.53;0.40;;;14.10;99.90;;;;;;4994081;28;20448;-82
2022/06/25 03:21:20;;;;;;;0.50;0.30;;;14.10;99.90;;;;;;4993712;28;20484;-82
2022/06/25 03:23:49;;;;;;;0.40;0.30;;;14.10;99.90;;;;;;4993998;28;20455;-81
2022/06/25 03:26:15;;;;;;;0.80;0.50;;;14.10;99.90;;;;;;4993643;28;20461;-82
2022/06/25 03:28:42;;;;;;;0.30;0.30;;;14.10;99.90;;;;;;4993984;28;20463;-82
2022/06/25 03:31:09;;;;;;;0.50;0.50;;;14.10;99.90;;;;;;4993678;28;20958;-82
2022/06/25 03:33:35;;;;;;;0.50;0.50;;;14.10;99.90;;;;;;4993627;28;20453;-82
2022/06/25 03:36:02;;;;;;;0.40;0.40;;;14.10;99.90;;;;;;4993870;28;20461;-82
2022/06/25 03:38:29;;;;;;;0.40;0.40;;;14.10;99.90;;;;;;4993886;28;20448;-82
2022/06/25 03:43:38;;;;;;;0.80;0.40;;;14.10;99.90;;;;;;4992540;28;20440;-81
2022/06/25 03:46:04;;;;;;;1.00;0.50;;;14.10;99.90;;;;;;4993913;28;20480;-82
2022/06/25 03:48:31;;;;;;;0.87;0.87;;;14.20;99.90;;;;;;4993941;28;20461;-81
2022/06/25 03:50:58;;;;;;;4.50;0.40;;;14.10;99.90;;;;;;4993457;28;20988;-81
2022/06/25 03:53:24;;;;;;;0.47;0.43;;;14.10;99.90;;;;;;4993914;28;20455;-82
2022/06/25 03:55:51;;;;;;;1.07;0.50;;;14.10;99.90;;;;;;4993643;28;20464;-81
2022/06/25 03:58:20;;;;;;;0.40;0.40;;;14.20;99.90;;;;;;4993715;28;20453;-82
2022/06/25 04:00:46;;;;;;;0.40;0.40;;;14.30;99.90;;;;;;4993684;28;20444;-82
2022/06/25 04:03:13;;;;;;;0.60;0.60;;;14.40;99.90;;;;;;4993334;28;20495;-82
2022/06/25 04:05:40;;;;;;;0.40;0.40;;;14.60;99.90;;;;;;4993443;28;20476;-82
2022/06/25 04:08:07;;;;;;;0.73;0.60;;;14.60;99.90;;;;;;4994069;28;20476;-82
2022/06/25 04:10:33;;;;;;;0.57;0.57;;;14.70;99.90;;;;;;4997087;28;20937;-82
2022/06/25 04:13:00;;;;;;;0.40;0.40;;;14.70;99.90;;;;;;4997375;28;20778;-82
2022/06/25 04:15:28;;;;;;;0.60;0.60;;;14.60;99.90;;;;;;4997265;28;20468;-82
2022/06/25 04:17:55;;;;;;;0.50;0.50;;;14.60;99.90;;;;;;4997356;28;20452;-82
2022/06/25 04:20:22;;;;;;;0.80;0.50;;;14.60;99.90;;;;;;4996888;28;20944;-82
2022/06/25 04:22:49;;;;;;;1.20;0.47;;;14.60;99.90;;;;;;4996780;28;20999;-82
2022/06/25 04:25:15;;;;;;;1.50;0.90;;;14.60;99.90;;;;;;4997066;28;20468;-82
2022/06/25 04:30:28;;;;;;;0.50;0.50;;;14.70;99.90;;;;;;4996888;28;20403;-82
2022/06/25 04:32:54;;;;;;;0.50;0.50;;;14.70;99.90;;;;;;4997012;28;20452;-82
2022/06/25 04:35:21;;;;;;;0.80;0.40;;;14.70;99.90;;;;;;4996871;28;20491;-82
2022/06/25 04:37:48;;;;;;;0.50;0.43;;;14.80;99.90;;;;;;4996886;28;20479;-82
2022/06/25 04:40:15;;;;;;;0.70;0.70;;;14.80;99.90;;;;;;4996601;28;20784;-82
2022/06/25 04:42:42;;;;;;;0.50;0.50;;;14.80;99.90;;;;;;4996723;28;20484;-82
2022/06/25 04:45:09;;;;;;;0.50;0.50;;;14.80;99.90;;;;;;4996446;28;20475;-82
2022/06/25 04:47:38;;;;;;;0.40;0.37;;;14.90;99.90;;;;;;4996370;28;20971;-81
2022/06/25 04:50:05;;;;;;;2.87;0.80;;;14.80;99.90;;;;;;4996654;28;20548;-81
2022/06/25 04:52:32;;;;;;;0.40;0.40;;;14.90;99.90;;;;;;4996881;28;20436;-82
2022/06/25 04:54:59;;;;;;;0.40;0.40;;;14.90;99.90;;;;;;4996207;28;20976;-82
2022/06/25 04:57:26;;;;;;;0.30;0.30;;;14.90;99.90;;;;;;4996309;28;20793;-82
2022/06/25 04:59:52;;;;;;;0.50;0.50;;;15.00;99.90;;;;;;4996478;28;20459;-82
2022/06/25 05:02:19;;;;;;;0.80;0.40;;;15.00;99.90;;;;;;4996770;28;20995;-82
2022/06/25 05:04:47;;;;;;;0.90;0.70;;;15.00;99.90;;;;;;4996385;28;20488;-82
2022/06/25 05:07:14;;;;;;;0.40;0.40;;;15.10;99.90;;;;;;4996147;28;20571;-82
2022/06/25 05:09:41;;;;;;;0.70;0.70;;;15.20;99.90;;;;;;4996029;28;20800;-82
2022/06/25 05:12:08;;;;;;;0.50;0.50;;;15.20;99.90;;;;;;4995937;28;20828;-82
2022/06/25 05:14:35;;;;;;;0.43;0.40;;;15.30;99.90;;;;;;4996196;28;20441;-82
2022/06/25 05:17:02;;;;;;;0.50;0.40;;;15.30;99.90;;;;;;4995886;28;21031;-82
2022/06/25 05:19:28;;;;;;;0.40;0.40;;;15.40;99.90;;;;;;4995824;28;20447;-82
2022/06/25 05:21:56;;;;;;;0.50;0.43;;;15.50;99.90;;;;;;4995926;28;20481;-82
2022/06/25 05:24:23;;;;;;;0.40;0.40;;;15.50;99.90;;;;;;4995814;28;20441;-81
2022/06/25 05:26:50;;;;;;;0.80;0.47;;;15.60;99.90;;;;;;4995949;28;20983;-81
2022/06/25 05:29:16;;;;;;;0.40;0.30;;;15.70;99.90;;;;;;4995972;28;20448;-81
2022/06/25 05:31:44;;;;;;;0.83;0.50;;;15.70;99.90;;;;;;4995924;28;20471;-81
2022/06/25 05:34:10;;;;;;;0.63;0.50;;;15.70;99.90;;;;;;4995870;28;20457;-81
2022/06/25 05:36:37;;;;;;;0.60;0.50;;;15.80;99.90;;;;;;4995725;28;20989;-81
2022/06/25 05:39:05;;;;;;;0.53;0.53;;;15.90;99.90;;;;;;4995497;28;20944;-81
2022/06/25 05:41:32;;;;;;;0.40;0.40;;;16.00;99.90;;;;;;4995626;28;20449;-81
2022/06/25 05:43:59;;;;;;;0.50;0.30;;;16.00;99.90;;;;;;4995446;28;20805;-81
2022/06/25 05:46:25;;;;;;;0.40;0.33;;;16.10;99.90;;;;;;4995591;28;20476;-81
2022/06/25 05:48:52;;;;;;;0.40;0.40;;;16.20;99.90;;;;;;4995607;28;20532;-81
2022/06/25 05:51:19;;;;;;;0.50;0.40;;;16.30;99.90;;;;;;4995221;28;20944;-81
2022/06/25 05:53:45;;;;;;;0.60;0.40;;;16.40;99.90;;;;;;4995513;28;20445;-81
2022/06/25 05:56:14;;;;;;;0.40;0.40;;;16.60;99.90;;;;;;4995041;28;20857;-81
2022/06/25 05:58:40;;;;;;;0.40;0.30;;;16.70;99.90;;;;;;4995149;28;20444;-81
2022/06/25 06:01:07;;;;;;;0.40;0.40;;;16.90;99.90;;;;;;4995350;28;20452;-81
2022/06/25 06:03:34;;;;;;;0.33;0.33;;;17.00;99.90;;;;;;4994921;28;21011;-81
2022/06/25 06:06:00;;;;;;;0.40;0.40;;;17.10;99.90;;;;;;4995307;28;20472;-81
2022/06/25 06:08:27;;;;;;;0.40;0.30;;;17.30;99.90;;;;;;4994805;28;20475;-81
2022/06/25 06:10:54;;;;;;;0.40;0.40;;;17.40;99.90;;;;;;4995197;28;20460;-81
2022/06/25 06:13:22;;;;;;;0.60;0.40;;;17.60;99.90;;;;;;4995113;28;20476;-81
2022/06/25 06:15:49;;;;;;;0.50;0.40;;;17.80;99.90;;;;;;4994718;28;20472;-81
2022/06/25 06:18:16;;;;;;;0.70;0.40;;;18.10;99.90;;;;;;4995232;28;20448;-82
2022/06/25 06:20:43;;;;;;;2.57;0.40;;;18.30;99.90;;;;;;4994876;28;20944;-82
2022/06/25 06:23:10;;;;;;;0.70;0.53;;;18.60;99.90;;;;;;4994641;28;20491;-85
2022/06/25 06:25:37;;;;;;;0.40;0.37;;;18.90;99.90;;;;;;4994584;28;20460;-83
2022/06/25 06:28:04;;;;;;;2.10;0.50;;;19.10;99.90;;;;;;4994681;28;20459;-83
2022/06/25 06:30:32;;;;;;;0.40;0.40;;;19.50;99.90;;;;;;4994403;28;20488;-83
2022/06/25 06:32:58;;;;;;;1.03;0.40;;;19.90;99.90;;;;;;4994723;28;20440;-83
2022/06/25 06:35:25;;;;;;;0.40;0.40;;;20.40;99.90;;;;;;4994398;28;20862;-83
2022/06/25 06:37:52;;;;;;;0.40;0.40;;;20.70;99.90;;;;;;4994481;28;20202;-83
2022/06/25 06:40:19;;;;;;;0.67;0.47;;;20.90;99.90;;;;;;4994755;28;20204;-83
2022/06/25 06:42:45;;;;;;;0.40;0.40;;;21.20;99.90;;;;;;4994455;28;20592;-83
2022/06/25 06:45:12;;;;;;;0.93;0.85;;;21.30;99.90;;;;;;4994483;28;20225;-83
2022/06/25 06:47:40;;;;;;;0.40;0.40;;;21.40;99.90;;;;;;4994725;28;20212;-83
2022/06/25 06:50:10;;;;;;;0.63;0.63;;;21.50;99.90;;;;;;4994756;28;20197;-83
2022/06/25 06:52:37;;;;;;;0.60;0.60;;;21.60;99.90;;;;;;4994573;28;20207;-82
2022/06/25 06:55:04;;;;;;;0.40;0.40;;;21.70;99.90;;;;;;4994121;28;20217;-83
2022/06/25 06:57:31;;;;;;;1.48;0.50;;;21.80;99.90;;;;;;4994105;28;20212;-83
2022/06/25 06:59:58;;;;;;;0.63;0.47;;;22.00;99.90;;;;;;4994410;28;20201;-83
2022/06/25 07:02:25;;;;;;;0.50;0.40;;;21.90;99.90;;;;;;4994110;28;20220;-83
2022/06/25 07:04:53;;;;;;;0.32;0.30;;;21.90;99.90;;;;;;4994238;28;20270;-83
2022/06/25 07:07:20;;;;;;;0.50;0.40;;;21.80;99.90;;;;;;4994065;28;20243;-83
2022/06/25 07:09:47;;;;;;;0.57;0.57;;;21.80;99.90;;;;;;4994500;28;20332;-82
2022/06/25 07:12:14;;;;;;;0.50;0.50;;;21.80;99.90;;;;;;4994294;28;20216;-82
2022/06/25 07:14:41;;;;;;;1.10;0.50;;;21.90;99.90;;;;;;4993738;28;20196;-83
2022/06/25 07:17:07;;;;;;;0.40;0.40;;;21.90;99.90;;;;;;4994094;28;20212;-83
2022/06/25 07:19:34;;;;;;;0.50;0.50;;;21.80;99.90;;;;;;4994200;28;20212;-83
2022/06/25 07:22:03;;;;;;;0.40;0.40;;;21.70;99.90;;;;;;4994229;28;20462;-83
2022/06/25 07:24:29;;;;;;;0.40;0.40;;;21.70;99.90;;;;;;4994066;28;20458;-82
2022/06/25 07:26:56;;;;;;;1.70;0.50;;;21.60;99.90;;;;;;4994037;28;20547;-83
2022/06/25 07:29:23;;;;;;;0.40;0.40;;;21.50;99.90;;;;;;4994073;28;20940;-82
2022/06/25 07:31:51;;;;;;;0.47;0.40;;;21.50;99.90;;;;;;4994041;28;20947;-82
2022/06/25 07:34:17;;;;;;;0.60;0.40;;;21.50;99.90;;;;;;4994742;28;20763;-82
2022/06/25 07:36:44;;;;;;;0.60;0.60;;;21.50;99.90;;;;;;4993975;28;20978;-82
2022/06/25 07:39:12;;;;;;;0.50;0.50;;;21.70;99.90;;;;;;4994172;28;20437;-82
2022/06/25 07:41:40;;;;;;;0.70;0.50;;;21.90;99.90;;;;;;4993947;28;20943;-83
2022/06/25 07:44:06;;;;;;;0.40;0.40;;;22.10;99.90;;;;;;4996643;28;20483;-82
2022/06/25 07:46:33;;;;;;;0.40;0.40;;;22.50;99.90;;;;;;4998591;28;20478;-82
2022/06/25 07:49:00;;;;;;;0.50;0.50;;;22.80;99.90;;;;;;4998595;28;20458;-82
2022/06/25 07:54:13;;;;;;;0.43;0.43;;;23.80;99.90;;;;;;4998993;28;20176;-82
2022/06/25 07:56:39;;;;;;;0.50;0.50;;;24.10;99.90;;;;;;4999189;28;20232;-82
2022/06/25 07:59:06;;;;;;;0.60;0.50;;;24.60;99.90;;;;;;4999244;28;20200;-83
2022/06/25 08:01:33;;;;;;;1.80;1.00;;;24.90;99.90;;;;;;4999054;28;20205;-82
2022/06/25 08:04:00;;;;;;;0.70;0.50;;;24.90;99.90;;;;;;4998656;28;20767;-82
2022/06/25 08:06:27;;;;;;;0.60;0.60;;;24.90;99.90;;;;;;4999355;28;20228;-82
2022/06/25 08:08:54;;;;;;;0.52;0.50;;;24.70;99.90;;;;;;5000644;28;20236;-82
2022/06/25 08:11:22;;;;;;;0.40;0.40;;;24.70;99.90;;;;;;4997839;28;20185;-82
2022/06/25 08:13:49;;;;;;;1.30;0.57;;;24.70;99.90;;;;;;4999470;28;20208;-82
2022/06/25 08:16:16;;;;;;;0.52;0.52;;;24.80;99.90;;;;;;5000229;28;20576;-82
2022/06/25 08:18:43;;;;;;;0.50;0.40;;;24.90;99.90;;;;;;4999051;28;20227;-82
2022/06/25 08:21:10;;;;;;;1.65;0.60;;;25.30;99.90;;;;;;4999075;28;20212;-83
2022/06/25 08:23:36;;;;;;;0.40;0.40;;;25.90;99.90;;;;;;4999239;28;20209;-83
2022/06/25 08:26:03;;;;;;;0.80;0.75;;;26.50;99.90;;;;;;5000793;28;20235;-83
2022/06/25 08:28:31;;;;;;;0.77;0.55;;;26.80;99.90;;;;;;5000214;28;20200;-82
2022/06/25 08:30:58;;;;;;;0.70;0.68;;;26.70;99.90;;;;;;5000456;28;20210;-82
2022/06/25 08:33:25;;;;;;;0.52;0.50;;;26.90;99.90;;;;;;4998979;28;20207;-82
2022/06/25 08:35:52;;;;;;;0.60;0.60;;;27.00;99.90;;;;;;4999819;28;20228;-83
2022/06/25 08:38:19;;;;;;;0.82;0.60;;;26.80;99.90;;;;;;4999434;28;20210;-83
2022/06/25 08:40:45;;;;;;;0.50;0.50;;;26.10;99.90;;;;;;5001072;28;20214;-83
2022/06/25 08:43:12;;;;;;;0.50;0.50;;;25.40;99.90;;;;;;5000504;28;20216;-83
2022/06/25 08:45:40;;;;;;;0.50;0.50;;;24.90;99.90;;;;;;4999261;28;20225;-83
2022/06/25 08:48:16;;;;;;;0.60;0.60;;;24.90;99.90;;;;;;4999497;28;20189;-84
2022/06/25 08:50:44;;;;;;;0.50;0.50;;;25.00;99.90;;;;;;4998914;28;20196;-83
2022/06/25 08:53:13;;;;;;;0.50;0.45;;;25.50;99.90;;;;;;4998369;28;20200;-83
2022/06/25 08:55:40;;;;;;;14.15;1.40;;;26.00;99.90;;;;;;4997716;28;20229;-82
2022/06/25 08:58:09;;;;;;;0.68;0.68;;;26.30;99.90;;;;;;4997041;28;20205;-83
2022/06/25 09:00:37;;;;;;;0.63;0.63;;;26.50;99.90;;;;;;4997851;28;20205;-82
2022/06/25 09:03:07;;;;;;;0.80;0.80;;;26.60;99.90;;;;;;4996354;28;20228;-82
2022/06/25 09:05:36;;;;;;;0.70;0.70;;;26.50;99.90;;;;;;4996648;28;20225;-82
2022/06/25 09:08:06;;;;;;;0.60;0.60;;;25.90;99.90;;;;;;4995680;28;20257;-83
2022/06/25 09:10:34;;;;;;;0.68;0.50;;;25.60;99.90;;;;;;4995259;28;20215;-84
2022/06/25 09:13:03;;;;;;;1.40;0.50;;;25.30;99.90;;;;;;4995166;28;20200;-83
2022/06/25 09:15:33;;;;;;;0.60;0.50;;;25.40;99.90;;;;;;4995139;28;20232;-84
2022/06/25 09:18:08;;;;;;;0.55;0.55;;;25.60;99.90;;;;;;4995289;28;20627;-83
2022/06/25 09:20:35;;;;;;;0.50;0.50;;;25.70;99.90;;;;;;4995089;28;20193;-83
2022/06/25 09:23:05;;;;;;;0.82;0.60;;;25.50;99.90;;;;;;4994964;28;20235;-84
2022/06/25 09:25:35;;;;;;;0.60;0.60;;;25.40;99.90;;;;;;4994883;28;20315;-84
2022/06/25 09:28:01;;;;;;;0.55;0.55;;;25.40;99.90;;;;;;4995224;28;20213;-84
2022/06/25 09:30:32;;;;;;;0.63;0.43;;;25.40;99.90;;;;;;4994942;28;20216;-84
2022/06/25 09:33:00;;;;;;;0.50;0.50;;;25.50;99.90;;;;;;4994989;28;20207;-83
2022/06/25 09:35:33;;;;;;;0.63;0.50;;;25.60;99.90;;;;;;4994869;28;20596;-83
2022/06/25 09:38:08;;;;;;;0.50;0.50;;;25.40;99.90;;;;;;4994871;28;20200;-84
2022/06/25 09:40:36;;;;;;;0.60;0.60;;;25.30;99.90;;;;;;4994973;28;20214;-83
2022/06/25 09:43:12;;;;;;;0.40;0.40;;;25.20;99.90;;;;;;4994754;28;20252;-83
2022/06/25 09:45:39;;;;;;;0.50;0.50;;;25.20;99.90;;;;;;4994719;28;20681;-83
2022/06/25 09:48:10;;;;;;;0.60;0.55;;;25.20;99.90;;;;;;4994922;28;20212;-83
2022/06/25 09:50:38;;;;;;;0.98;0.70;;;25.20;99.90;;;;;;4994840;28;20212;-83
2022/06/25 09:53:05;;;;;;;0.52;0.52;;;25.00;99.90;;;;;;4994559;28;20213;-84
2022/06/25 09:55:33;;;;;;;0.40;0.40;;;24.80;99.90;;;;;;4994499;28;20228;-83
2022/06/25 09:58:02;;;;;;;0.68;0.60;;;24.70;99.90;;;;;;4994498;28;20220;-83
2022/06/25 10:00:30;;;;;;;0.70;0.70;;;24.70;99.90;;;;;;4994581;28;20215;-84
2022/06/25 10:03:00;;;;;;;0.60;0.60;;;24.60;99.90;;;;;;4994452;28;20201;-84
2022/06/25 10:05:32;;;;;;;0.93;0.70;;;24.60;99.90;;;;;;4993791;28;20238;-84
2022/06/25 10:08:01;;;;;;;0.60;0.60;;;24.60;99.90;;;;;;4958147;28;1050027;-84
2022/06/25 10:10:31;;;;;;;0.82;0.52;;;24.60;99.90;;;;;;4995036;28;20200;-84
2022/06/25 10:12:58;;;;;;;0.40;0.40;;;24.70;99.90;;;;;;4994823;28;20630;-83
2022/06/25 10:15:25;;;;;;;0.50;0.50;;;24.70;99.90;;;;;;4994965;28;20232;-84
2022/06/25 10:17:53;;;;;;;0.73;0.60;;;24.70;99.90;;;;;;4994757;28;20247;-83
2022/06/25 10:20:21;;;;;;;0.80;0.57;;;24.70;99.90;;;;;;4995009;28;20216;-83
2022/06/25 10:22:50;;;;;;;0.50;0.40;;;24.90;99.90;;;;;;4995010;28;20216;-84
2022/06/25 10:25:21;;;;;;;0.50;0.47;;;24.90;99.90;;;;;;4994593;28;20230;-83
2022/06/25 10:27:50;;;;;;;0.70;0.65;;;24.90;99.90;;;;;;4994772;28;20189;-83
2022/06/25 10:30:35;;;;;;;0.55;0.55;;;24.90;99.90;;;;;;4994845;28;20311;-83
2022/06/25 10:33:03;;;;;;;0.35;0.35;;;24.80;99.90;;;;;;4994957;28;20200;-83
2022/06/25 10:35:32;;;;;;;0.73;0.60;;;24.80;99.90;;;;;;4994530;28;20220;-83
2022/06/25 10:38:01;;;;;;;0.98;0.70;;;24.90;99.90;;;;;;4994759;28;20189;-83
2022/06/25 10:40:29;;;;;;;0.50;0.50;;;24.70;99.90;;;;;;4994760;28;20221;-82
2022/06/25 10:43:02;;;;;;;0.60;0.60;;;24.60;99.90;;;;;;4994657;28;20211;-81
2022/06/25 10:45:56;;;;;;;0.60;0.60;;;24.70;99.90;;;;;;4994638;28;20224;-83
2022/06/25 10:48:23;;;;;;;0.50;0.50;;;24.50;99.90;;;;;;4994306;28;20196;-82
2022/06/25 10:50:51;;;;;;;0.50;0.50;;;24.30;99.90;;;;;;4994479;28;20665;-83
2022/06/25 10:53:20;;;;;;;3.05;0.70;;;24.10;99.90;;;;;;4994498;28;20553;-82
2022/06/25 10:56:15;;;;;;;0.93;0.52;;;24.40;99.90;;;;;;4994314;28;20231;-82
2022/06/25 10:58:43;;;;;;;0.73;0.70;;;24.70;99.90;;;;;;4994092;28;20596;-82
2022/06/25 11:01:28;;;;;;;0.60;0.57;;;25.00;99.90;;;;;;4994853;28;20218;-83
2022/06/25 11:03:56;;;;;;;0.65;0.65;;;25.10;99.90;;;;;;4994285;28;20212;-82
2022/06/25 11:06:24;;;;;;;0.70;0.70;;;25.50;99.90;;;;;;4994181;28;20221;-82
2022/06/25 11:08:52;;;;;;;1.25;0.70;;;25.90;99.90;;;;;;4994141;28;20228;-82
2022/06/25 11:11:28;;;;;;;0.60;0.60;;;26.20;99.90;;;;;;4994212;28;20227;-82
2022/06/25 11:13:56;;;;;;;0.50;0.43;;;26.50;99.90;;;;;;4994200;28;20189;-82
2022/06/25 11:16:24;;;;;;;0.75;0.75;;;26.50;99.90;;;;;;4993733;28;20596;-84
2022/06/25 11:18:53;;;;;;;0.60;0.60;;;26.40;99.90;;;;;;4993991;28;20219;-84
2022/06/25 11:21:32;;;;;;;0.50;0.50;;;26.20;98.00;;;;;;4994083;28;20233;-82
2022/06/25 11:24:10;;;;;;;0.90;0.60;;;26.00;99.40;;;;;;4993802;28;20715;-83
2022/06/25 11:29:25;;;;;;;0.60;0.50;;;25.60;98.10;;;;;;4994107;28;20700;-83
2022/06/25 11:31:53;;;;;;;0.50;0.50;;;25.60;96.80;;;;;;4993613;28;20212;-83
2022/06/25 11:34:21;;;;;;;0.50;0.43;;;25.60;98.30;;;;;;4993937;28;20197;-83
2022/06/25 11:37:13;;;;;;;0.70;0.50;;;25.60;98.30;;;;;;4993972;28;20231;-84
2022/06/25 11:39:41;;;;;;;0.50;0.50;;;25.40;99.60;;;;;;4993926;28;20189;-83
2022/06/25 11:42:10;;;;;;;0.40;0.40;;;25.10;99.90;;;;;;4993988;28;20197;-84
2022/06/25 11:44:43;;;;;;;0.43;0.43;;;24.90;99.90;;;;;;4993422;28;20720;-85
2022/06/25 11:47:12;;;;;;;0.90;0.60;;;24.80;99.90;;;;;;4993551;28;20614;-83
2022/06/25 11:49:40;;;;;;;0.50;0.50;;;24.80;99.70;;;;;;4994130;28;20204;-83
2022/06/25 11:52:08;;;;;;;0.75;0.57;;;24.80;99.90;;;;;;4993845;28;20204;-82
2022/06/25 11:54:37;;;;;;;0.50;0.50;;;24.90;99.90;;;;;;4993714;28;20208;-84
2022/06/25 11:57:06;;;;;;;0.45;0.40;;;25.00;99.10;;;;;;4994164;28;20562;-85
2022/06/25 11:59:37;;;;;;;0.50;0.50;;;25.00;98.60;;;;;;4993586;28;20256;-82
2022/06/25 12:02:04;;;;;;;0.57;0.55;;;24.90;99.90;;;;;;4993750;28;20193;-83
2022/06/25 12:04:32;;;;;;;0.45;0.45;;;24.90;98.80;;;;;;4994277;28;20235;-82
2022/06/25 12:06:59;;;;;;;0.68;0.68;;;24.90;98.90;;;;;;4993869;28;20202;-81
2022/06/25 12:09:26;;;;;;;0.50;0.50;;;24.90;99.80;;;;;;4993696;28;20193;-82
2022/06/25 12:11:55;;;;;;;0.45;0.40;;;24.90;99.30;;;;;;4993675;28;20205;-82
2022/06/25 12:14:23;;;;;;;1.65;0.65;;;24.90;99.20;;;;;;4993327;28;20680;-82
2022/06/25 12:16:51;;;;;;;0.70;0.70;;;24.80;99.30;;;;;;4993381;28;20232;-82
2022/06/25 12:19:19;;;;;;;0.45;0.45;;;24.60;99.30;;;;;;4993406;28;20688;-82
2022/06/25 12:21:45;;;;;;;0.40;0.40;;;24.60;99.90;;;;;;4993572;28;20212;-82
2022/06/25 12:24:13;;;;;;;0.70;0.70;;;24.50;99.60;;;;;;4993452;28;20229;-82
2022/06/25 12:26:43;;;;;;;0.50;0.50;;;24.60;99.10;;;;;;4993085;28;20235;-82
2022/06/25 12:29:12;;;;;;;0.50;0.50;;;24.50;99.90;;;;;;4994154;28;20209;-83
2022/06/25 12:31:39;;;;;;;0.45;0.45;;;24.60;98.80;;;;;;4997063;28;20215;-82
2022/06/25 12:34:08;;;;;;;0.57;0.50;;;24.60;98.80;;;;;;4997044;28;20201;-82
2022/06/25 12:36:37;;;;;;;0.50;0.50;;;24.60;98.90;;;;;;4996606;28;20743;-82
2022/06/25 12:39:20;;;;;;;0.60;0.50;;;24.50;98.60;;;;;;4996916;28;20205;-81
2022/06/25 12:41:47;;;;;;;0.40;0.40;;;24.40;99.80;;;;;;4995870;28;20770;-82
2022/06/25 12:44:14;;;;;;;0.50;0.50;;;24.30;99.20;;;;;;4996783;28;20252;-82
2022/06/25 12:46:41;;;;;;;0.40;0.40;;;24.30;98.50;;;;;;4996339;28;20229;-81
2022/06/25 12:49:12;;;;;;;0.50;0.50;;;24.20;99.30;;;;;;4996732;28;20299;-83
2022/06/25 12:51:40;;;;;;;0.50;0.50;;;24.10;99.50;;;;;;4996789;28;20240;-82
2022/06/25 12:54:07;;;;;;;0.60;0.60;;;24.00;99.90;;;;;;4996435;28;20201;-81
2022/06/25 12:56:34;;;;;;;0.50;0.50;;;24.00;99.90;;;;;;4996293;28;20217;-82
2022/06/25 12:59:02;;;;;;;0.57;0.57;;;24.00;99.90;;;;;;4996325;28;20205;-81
2022/06/25 13:01:29;;;;;;;0.40;0.40;;;24.00;99.90;;;;;;4996526;28;20212;-81
2022/06/25 13:03:56;;;;;;;0.50;0.50;;;24.00;99.90;;;;;;4996323;28;20210;-83
2022/06/25 13:06:24;;;;;;;0.70;0.50;;;24.00;99.40;;;;;;4996368;28;20227;-81